Time;durP1;ratioP1;P1;durP2;ratioP2;P2;SDS_P1;SDS_P2;PMS_P1;PMS_P2;Temp;Humidity;BMP_temperature;BMP_pressure;BME280_temperature;BME280_humidity;BME280_pressure;Samples;Min_cycle;Max_cycle;Signal;HPM_P1;HPM_P2
2021/04/19 00:01:43;;;;;;;25.83;19.70;;;;;;;4.50;77.66;95813.66;4977006;28;20207;-73
2021/04/19 00:04:10;;;;;;;24.17;20.13;;;;;;;4.46;78.19;95804.50;4977069;28;20176;-73
2021/04/19 00:06:35;;;;;;;27.53;19.60;;;;;;;4.43;77.73;95803.91;4994332;28;20191;-72
2021/04/19 00:09:00;;;;;;;24.73;19.10;;;;;;;4.38;78.34;95801.63;4977309;28;20184;-73
2021/04/19 00:11:25;;;;;;;27.53;20.60;;;;;;;4.35;78.02;95796.69;4994554;28;20257;-73
2021/04/19 00:13:51;;;;;;;25.63;19.13;;;;;;;4.34;78.54;95797.63;4977079;28;20556;-73
2021/04/19 00:16:16;;;;;;;24.30;20.03;;;;;;;4.36;78.37;95793.19;4976576;28;20739;-73
2021/04/19 00:18:42;;;;;;;30.47;20.73;;;;;;;4.39;78.29;95792.16;4976972;28;20270;-73
2021/04/19 00:21:07;;;;;;;25.13;20.33;;;;;;;4.34;78.71;95797.63;4976951;28;20204;-73
2021/04/19 00:23:32;;;;;;;29.10;20.87;;;;;;;4.31;78.76;95799.56;4976729;28;20261;-73
2021/04/19 00:25:57;;;;;;;28.33;20.57;;;;;;;4.32;78.75;95791.75;4976536;28;20636;-72
2021/04/19 00:28:23;;;;;;;27.47;20.60;;;;;;;4.30;78.54;95785.91;4976561;28;20290;-73
2021/04/19 00:30:49;;;;;;;28.23;20.37;;;;;;;4.29;78.88;95791.97;4960408;28;20298;-73
2021/04/19 00:33:14;;;;;;;26.10;20.40;;;;;;;4.28;78.44;95787.75;4976715;28;20239;-73
2021/04/19 00:35:40;;;;;;;30.90;22.27;;;;;;;4.25;78.38;95790.53;4993788;28;20257;-73
2021/04/19 00:38:05;;;;;;;31.13;21.73;;;;;;;4.24;78.99;95786.31;4994055;28;20191;-73
2021/04/19 00:40:31;;;;;;;27.80;20.50;;;;;;;4.23;78.48;95780.34;4976405;28;20583;-73
2021/04/19 00:42:57;;;;;;;33.53;23.70;;;;;;;4.24;78.73;95782.00;4976662;28;20727;-73
2021/04/19 00:45:22;;;;;;;32.73;22.93;;;;;;;4.22;79.07;95786.41;4976204;28;20192;-73
2021/04/19 00:47:48;;;;;;;33.63;23.97;;;;;;;4.23;78.95;95790.63;4976417;28;20172;-73
2021/04/19 00:50:18;;;;;;;34.10;25.90;;;;;;;4.22;79.10;95786.41;4976467;28;20168;-73
2021/04/19 00:52:44;;;;;;;30.63;23.07;;;;;;;4.25;79.03;95787.97;4959866;28;20581;-73
2021/04/19 00:55:12;;;;;;;29.57;21.50;;;;;;;4.24;78.40;95789.72;4992376;28;20221;-73
2021/04/19 00:57:37;;;;;;;27.50;20.37;;;;;;;4.24;78.31;95776.88;5013411;28;20186;-73
2021/04/19 01:00:10;;;;;;;33.20;23.53;;;;;;;4.33;78.53;95777.16;4995670;28;20543;-73
2021/04/19 01:02:37;;;;;;;30.77;22.23;;;;;;;4.35;78.92;95777.88;4995813;28;20186;-73
2021/04/19 01:05:06;;;;;;;31.23;22.93;;;;;;;4.34;78.50;95776.25;4995288;28;20211;-73
2021/04/19 01:07:31;;;;;;;30.47;21.23;;;;;;;4.35;78.28;95776.13;4995385;28;20252;-73
2021/04/19 01:09:57;;;;;;;28.80;21.80;;;;;;;4.36;78.37;95771.81;4995540;28;20588;-73
2021/04/19 01:12:22;;;;;;;28.10;21.73;;;;;;;4.44;78.35;95766.97;4995508;28;20179;-73
2021/04/19 01:14:47;;;;;;;29.77;22.43;;;;;;;4.34;78.65;95764.22;5011234;28;20218;-73
2021/04/19 01:17:12;;;;;;;28.80;21.80;;;;;;;4.34;78.59;95765.97;5028082;28;20187;-73
2021/04/19 01:19:38;;;;;;;30.80;21.57;;;;;;;4.32;78.30;95766.03;5012857;28;20575;-73
2021/04/19 01:22:03;;;;;;;28.27;22.50;;;;;;;4.33;77.96;95757.44;4995140;28;20206;-73
2021/04/19 01:24:29;;;;;;;35.20;24.70;;;;;;;4.33;78.16;95764.28;5010999;28;20203;-73
2021/04/19 01:26:54;;;;;;;31.83;23.60;;;;;;;4.37;77.97;95760.59;4995230;28;20321;-73
2021/04/19 01:29:19;;;;;;;31.80;22.83;;;;;;;4.32;78.33;95753.19;5011220;28;20647;-72
2021/04/19 01:31:45;;;;;;;34.60;23.67;;;;;;;4.26;78.32;95751.06;5012178;28;20182;-73
2021/04/19 01:34:10;;;;;;;28.80;22.13;;;;;;;4.27;78.33;95750.13;4994940;28;20186;-73
2021/04/19 01:36:35;;;;;;;33.57;23.33;;;;;;;4.25;78.35;95754.56;4994658;28;20635;-73
2021/04/19 01:39:00;;;;;;;31.23;23.93;;;;;;;4.23;78.73;95752.06;4995073;28;20179;-73
2021/04/19 01:41:29;;;;;;;30.03;22.57;;;;;;;4.22;78.96;95749.59;5027510;28;20690;-72
2021/04/19 01:43:54;;;;;;;31.17;23.27;;;;;;;4.20;78.70;95751.47;4995230;28;20184;-73
2021/04/19 01:46:19;;;;;;;29.87;22.63;;;;;;;4.18;79.00;95748.19;4994596;28;20190;-73
2021/04/19 01:48:45;;;;;;;30.37;22.77;;;;;;;4.13;78.64;95751.03;4994725;28;20175;-73
2021/04/19 01:51:10;;;;;;;34.53;23.83;;;;;;;4.13;78.65;95745.91;4994557;28;20234;-72
2021/04/19 01:53:35;;;;;;;29.40;21.93;;;;;;;4.11;78.36;95737.47;5012303;28;20179;-73
2021/04/19 01:56:01;;;;;;;32.70;23.03;;;;;;;4.13;78.41;95745.91;4994371;28;20199;-73
2021/04/19 01:58:26;;;;;;;32.20;23.23;;;;;;;4.10;78.51;95735.84;4994586;28;20270;-73
2021/04/19 02:00:57;;;;;;;34.40;23.97;;;;;;;4.08;79.04;95742.84;4994612;28;20239;-73
2021/04/19 02:03:42;;;;;;;34.70;23.77;;;;;;;4.08;79.01;95737.69;5010367;28;20676;-73
2021/04/19 02:06:23;;;;;;;32.23;23.77;;;;;;;4.05;78.87;95739.63;4994304;28;20199;-73
2021/04/19 02:09:18;;;;;;;33.67;23.60;;;;;;;4.06;78.56;95739.53;4994585;28;20366;-73
2021/04/19 02:12:00;;;;;;;37.07;23.93;;;;;;;4.04;79.17;95745.69;5027116;28;20249;-73
2021/04/19 02:14:39;;;;;;;36.37;24.30;;;;;;;4.02;78.76;95742.41;5027071;28;20210;-73
2021/04/19 02:17:23;;;;;;;31.60;24.40;;;;;;;4.01;78.66;95741.59;5027112;28;20183;-73
2021/04/19 02:19:55;;;;;;;31.37;22.27;;;;;;;4.05;78.75;95731.91;5026959;28;20540;-73
2021/04/19 02:22:31;;;;;;;32.30;22.60;;;;;;;4.03;78.80;95737.16;4994235;28;20198;-73
2021/04/19 02:25:06;;;;;;;33.73;23.47;;;;;;;4.01;78.94;95736.47;5010395;28;20622;-72
2021/04/19 02:27:37;;;;;;;31.73;22.27;;;;;;;3.96;79.15;95738.50;4994118;28;20177;-73
2021/04/19 02:30:09;;;;;;;32.43;22.53;;;;;;;3.96;78.79;95739.31;5027017;28;20175;-73
2021/04/19 02:32:36;;;;;;;28.87;22.57;;;;;;;3.96;79.19;95744.47;4994231;28;20532;-73
2021/04/19 02:35:09;;;;;;;32.37;23.63;;;;;;;3.94;78.95;95745.50;4993637;28;20199;-73
2021/04/19 02:37:36;;;;;;;30.57;21.80;;;;;;;3.99;78.88;95748.59;4994041;28;20186;-73
2021/04/19 02:40:05;;;;;;;30.90;22.87;;;;;;;4.03;79.01;95742.31;4994040;28;20547;-72
2021/04/19 02:42:34;;;;;;;29.77;21.73;;;;;;;4.04;79.02;95745.69;5011672;28;20229;-73
2021/04/19 02:45:01;;;;;;;30.37;22.97;;;;;;;3.98;79.24;95741.81;5009884;28;20570;-73
2021/04/19 02:47:26;;;;;;;30.23;21.90;;;;;;;3.99;78.77;95740.88;5010338;28;20178;-73
2021/04/19 02:49:51;;;;;;;33.93;22.23;;;;;;;4.01;79.19;95743.34;5026756;28;20226;-72
2021/04/19 02:52:17;;;;;;;29.83;22.87;;;;;;;4.03;79.04;95739.75;4993973;28;20233;-73
2021/04/19 02:54:44;;;;;;;32.00;23.30;;;;;;;4.07;78.93;95741.19;4993661;28;20282;-73
2021/04/19 02:57:24;;;;;;;30.43;22.07;;;;;;;4.05;78.86;95737.88;5010428;28;20439;-73
2021/04/19 02:59:51;;;;;;;31.67;22.03;;;;;;;4.04;79.19;95743.13;5011821;28;20175;-73
2021/04/19 03:02:19;;;;;;;28.67;21.80;;;;;;;4.03;78.78;95744.88;5010079;28;20194;-73
2021/04/19 03:04:44;;;;;;;32.23;21.90;;;;;;;4.02;79.02;95732.97;5026299;28;20211;-73
2021/04/19 03:07:10;;;;;;;31.33;21.47;;;;;;;4.01;78.79;95738.22;5010218;28;20187;-73
2021/04/19 03:09:41;;;;;;;32.87;22.33;;;;;;;4.07;79.36;95736.06;4993803;28;20183;-73
2021/04/19 03:12:07;;;;;;;31.33;21.30;;;;;;;4.06;79.01;95729.25;5009902;28;20179;-72
2021/04/19 03:14:37;;;;;;;29.07;20.30;;;;;;;4.12;78.47;95728.84;5011301;28;20627;-73
2021/04/19 03:17:07;;;;;;;30.60;22.10;;;;;;;4.09;78.94;95728.25;5013969;28;20179;-73
2021/04/19 03:19:36;;;;;;;50.47;37.20;;;;;;;4.07;78.89;95732.66;4997383;28;20278;-73
2021/04/19 03:22:02;;;;;;;36.43;31.30;;;;;;;4.09;78.60;95728.25;4997426;28;20245;-73
2021/04/19 03:24:29;;;;;;;30.80;22.33;;;;;;;4.13;78.62;95724.50;4996947;28;20199;-73
2021/04/19 03:26:55;;;;;;;43.43;30.33;;;;;;;4.13;78.56;95727.91;5013616;28;20186;-73
2021/04/19 03:29:21;;;;;;;51.33;32.30;;;;;;;4.08;79.00;95724.84;5013607;28;20194;-73
2021/04/19 03:31:50;;;;;;;64.30;36.10;;;;;;;4.08;78.90;95722.28;5030036;28;20183;-73
2021/04/19 03:34:21;;;;;;;70.17;38.17;;;;;;;4.09;78.53;95721.34;5013066;28;20202;-73
2021/04/19 03:36:50;;;;;;;64.83;33.63;;;;;;;4.08;78.81;95722.28;4997262;28;20179;-73
2021/04/19 03:39:17;;;;;;;48.27;27.80;;;;;;;4.07;78.58;95717.25;5030172;28;20180;-73
2021/04/19 03:41:47;;;;;;;101.77;49.33;;;;;;;4.08;79.01;95724.03;5014662;28;20601;-73
2021/04/19 03:44:14;;;;;;;123.40;55.90;;;;;;;4.10;78.93;95719.59;5029677;28;20317;-72
2021/04/19 03:46:40;;;;;;;54.33;31.90;;;;;;;4.07;78.70;95719.81;4996764;28;20859;-72
2021/04/19 03:49:10;;;;;;;48.67;31.73;;;;;;;4.09;78.37;95715.38;4996946;28;20194;-72
2021/04/19 03:51:36;;;;;;;46.30;29.33;;;;;;;4.05;79.01;95711.38;4996929;28;20682;-72
2021/04/19 03:54:01;;;;;;;44.87;30.53;;;;;;;4.06;78.87;95716.41;5029637;28;20190;-73
2021/04/19 03:56:31;;;;;;;38.20;25.10;;;;;;;4.09;79.00;95718.78;4996623;28;20183;-72
2021/04/19 03:58:59;;;;;;;38.87;25.67;;;;;;;4.06;78.94;95713.00;4996864;28;20245;-72
2021/04/19 04:01:25;;;;;;;37.43;26.30;;;;;;;4.08;78.75;95712.00;5012849;28;20199;-72
2021/04/19 04:03:51;;;;;;;35.63;24.07;;;;;;;4.13;79.15;95707.34;4996548;28;20241;-73
2021/04/19 04:06:17;;;;;;;37.13;24.93;;;;;;;4.11;79.31;95711.78;5013022;28;20597;-73
2021/04/19 04:08:43;;;;;;;40.17;24.63;;;;;;;4.11;79.42;95714.34;4996861;28;20198;-73
2021/04/19 04:11:09;;;;;;;35.43;23.93;;;;;;;4.11;79.78;95713.53;4996546;28;20639;-73
2021/04/19 04:13:35;;;;;;;31.80;21.90;;;;;;;4.10;80.22;95714.47;5012772;28;20187;-73
2021/04/19 04:16:00;;;;;;;31.43;20.23;;;;;;;4.08;80.05;95711.19;4996013;28;20206;-73
2021/04/19 04:18:26;;;;;;;29.20;21.40;;;;;;;4.07;80.42;95714.69;4996690;28;20258;-73
2021/04/19 04:20:51;;;;;;;32.10;22.07;;;;;;;4.04;80.34;95718.25;5013863;28;20217;-73
2021/04/19 04:23:18;;;;;;;31.80;21.93;;;;;;;4.07;80.76;95715.50;5029176;28;20175;-74
2021/04/19 04:25:44;;;;;;;29.93;21.83;;;;;;;4.07;80.67;95712.09;4996029;28;20586;-73
2021/04/19 04:28:10;;;;;;;31.03;22.07;;;;;;;4.05;80.69;95716.50;5014139;28;20190;-73
2021/04/19 04:30:35;;;;;;;36.17;22.40;;;;;;;4.04;81.12;95720.00;5000711;28;20187;-73
2021/04/19 04:33:05;;;;;;;28.30;20.97;;;;;;;4.06;81.22;95710.44;5012997;28;20186;-73
2021/04/19 04:35:31;;;;;;;30.43;20.80;;;;;;;4.06;81.05;95710.44;4995900;28;20317;-73
2021/04/19 04:37:57;;;;;;;32.70;21.33;;;;;;;4.07;81.24;95715.50;4996268;28;20233;-72
2021/04/19 04:40:27;;;;;;;33.07;22.23;;;;;;;4.05;80.91;95714.75;5012137;28;20203;-74
2021/04/19 04:42:56;;;;;;;32.23;21.97;;;;;;;4.06;81.14;95716.41;4996014;28;20198;-74
2021/04/19 04:45:22;;;;;;;31.10;21.07;;;;;;;4.07;81.00;95714.69;5028595;28;20265;-73
2021/04/19 04:47:54;;;;;;;29.70;20.70;;;;;;;4.06;81.57;95711.25;5014336;28;20186;-73
2021/04/19 04:50:24;;;;;;;33.03;22.97;;;;;;;4.06;81.62;95710.44;5012727;28;20194;-72
2021/04/19 04:53:02;;;;;;;34.87;23.43;;;;;;;4.14;81.70;95706.41;4984668;28;20171;-73
2021/04/19 04:55:29;;;;;;;35.17;22.90;;;;;;;4.19;81.78;95713.81;4992670;28;20200;-74
2021/04/19 04:57:54;;;;;;;32.20;24.07;;;;;;;4.15;81.51;95713.22;5012167;28;20179;-75
2021/04/19 05:00:21;;;;;;;39.33;25.20;;;;;;;4.13;82.06;95717.63;5012070;28;20203;-74
2021/04/19 05:02:48;;;;;;;39.53;25.47;;;;;;;4.13;82.03;95724.50;4995547;28;20221;-73
2021/04/19 05:05:15;;;;;;;39.63;24.50;;;;;;;4.13;82.01;95717.63;4995294;28;20728;-74
2021/04/19 05:07:41;;;;;;;30.63;21.07;;;;;;;4.21;82.14;95719.69;5011880;28;20175;-74
2021/04/19 05:10:07;;;;;;;32.23;21.83;;;;;;;4.19;82.26;95718.97;5012180;28;20189;-73
2021/04/19 05:12:33;;;;;;;35.83;22.50;;;;;;;4.12;82.67;95712.59;5011614;28;20194;-74
2021/04/19 05:15:00;;;;;;;33.37;22.67;;;;;;;4.07;82.72;95714.69;5011552;28;20194;-73
2021/04/19 05:17:25;;;;;;;31.73;21.83;;;;;;;4.04;83.17;95720.81;4984652;28;20561;-72
2021/04/19 05:19:51;;;;;;;34.37;23.60;;;;;;;4.05;83.49;95722.47;4982417;28;20193;-73
2021/04/19 05:22:16;;;;;;;32.50;22.87;;;;;;;4.01;83.64;95717.66;4974868;28;20194;-73
2021/04/19 05:24:42;;;;;;;35.63;23.97;;;;;;;4.01;83.74;95721.03;4992838;28;20605;-73
2021/04/19 05:27:08;;;;;;;38.03;25.07;;;;;;;4.02;84.03;95729.56;4991523;28;20605;-73
2021/04/19 05:29:34;;;;;;;42.90;29.03;;;;;;;4.03;83.65;95724.31;4975829;28;20183;-73
2021/04/19 05:32:00;;;;;;;46.63;29.07;;;;;;;4.04;84.10;95728.53;4992961;28;20180;-73
2021/04/19 05:34:25;;;;;;;40.30;26.23;;;;;;;4.09;83.95;95723.09;4991529;28;20781;-73
2021/04/19 05:36:51;;;;;;;35.30;24.13;;;;;;;4.15;84.13;95726.09;4958848;28;20195;-73
2021/04/19 05:39:16;;;;;;;37.60;24.93;;;;;;;4.20;84.13;95724.00;4974740;28;20195;-73
2021/04/19 05:41:43;;;;;;;35.83;24.20;;;;;;;4.19;84.43;95724.94;4991507;28;20216;-74
2021/04/19 05:44:08;;;;;;;38.07;25.43;;;;;;;4.13;84.44;95732.22;4975279;28;20187;-73
2021/04/19 05:46:34;;;;;;;40.77;25.77;;;;;;;4.16;84.48;95732.88;4975198;28;20187;-74
2021/04/19 05:48:59;;;;;;;38.33;25.33;;;;;;;4.14;84.43;95737.25;4991373;28;20245;-74
2021/04/19 05:51:27;;;;;;;37.87;26.70;;;;;;;4.19;84.89;95735.22;4992688;28;20183;-73
2021/04/19 05:53:55;;;;;;;47.70;28.70;;;;;;;4.15;84.97;95733.78;4974591;28;20235;-75
2021/04/19 05:56:33;;;;;;;47.23;28.77;;;;;;;4.20;84.38;95730.91;4975109;28;20187;-75
2021/04/19 05:59:28;;;;;;;53.57;34.97;;;;;;;4.24;84.42;95737.47;4968347;28;20170;-74
2021/04/19 06:01:55;;;;;;;47.13;30.10;;;;;;;4.28;84.36;95735.50;4939081;28;20278;-74
2021/04/19 06:04:27;;;;;;;51.13;29.03;;;;;;;4.31;83.93;95733.53;4971349;28;20690;-75
2021/04/19 06:07:15;;;;;;;39.27;25.80;;;;;;;4.37;83.71;95734.88;4987249;28;20672;-75
2021/04/19 06:10:02;;;;;;;41.77;27.80;;;;;;;4.37;83.31;95740.03;4972121;28;20652;-75
2021/04/19 06:12:31;;;;;;;47.07;29.40;;;;;;;4.41;83.42;95744.03;4973370;28;20187;-75
2021/04/19 06:14:59;;;;;;;41.40;26.73;;;;;;;4.44;83.90;95741.25;4984216;28;20673;-76
2021/04/19 06:17:25;;;;;;;35.37;25.07;;;;;;;4.41;83.60;95738.88;4974064;28;20268;-74
2021/04/19 06:19:51;;;;;;;38.23;26.93;;;;;;;4.41;84.34;95738.88;4993563;28;20223;-74
2021/04/19 06:22:20;;;;;;;38.83;25.30;;;;;;;4.49;84.10;95741.75;4988424;28;20208;-74
2021/04/19 06:24:51;;;;;;;38.57;25.23;;;;;;;4.51;83.82;95745.06;4987304;28;20204;-75
2021/04/19 06:27:18;;;;;;;38.80;24.53;;;;;;;4.53;84.06;95744.00;4987840;28;20227;-76
2021/04/19 06:29:43;;;;;;;34.90;24.57;;;;;;;4.54;83.99;95747.41;4987733;28;20243;-75
2021/04/19 06:32:09;;;;;;;38.10;25.10;;;;;;;4.45;84.11;95750.63;4955396;28;20636;-75
2021/04/19 06:34:35;;;;;;;37.57;24.83;;;;;;;4.45;84.34;95745.47;4987980;28;20215;-74
2021/04/19 06:37:00;;;;;;;37.77;25.23;;;;;;;4.40;84.68;95744.94;4955395;28;20636;-75
2021/04/19 06:39:25;;;;;;;41.23;25.87;;;;;;;4.39;84.59;95751.84;4972668;28;20261;-75
2021/04/19 06:41:51;;;;;;;40.63;27.13;;;;;;;4.37;84.98;95745.16;4971302;28;20689;-75
2021/04/19 06:44:17;;;;;;;41.07;27.87;;;;;;;4.36;85.00;95746.09;4955139;28;20589;-75
2021/04/19 06:46:44;;;;;;;44.10;27.73;;;;;;;4.39;84.68;95753.59;4955315;28;20549;-75
2021/04/19 06:49:12;;;;;;;47.20;27.50;;;;;;;4.41;84.95;95749.16;4956659;28;20176;-75
2021/04/19 06:51:37;;;;;;;37.43;25.13;;;;;;;4.44;84.77;95751.53;4991427;28;20184;-75
2021/04/19 06:54:03;;;;;;;46.97;27.47;;;;;;;4.40;84.67;95748.34;4959114;28;20184;-75
2021/04/19 06:56:40;;;;;;;44.13;27.37;;;;;;;4.47;84.15;95748.75;5008212;28;20180;-75
2021/04/19 06:59:09;;;;;;;40.40;27.53;;;;;;;4.48;84.17;95750.41;4962412;28;20175;-75
2021/04/19 07:01:35;;;;;;;41.93;26.97;;;;;;;4.40;84.17;95748.34;4978467;28;20552;-74
2021/04/19 07:04:03;;;;;;;42.70;27.57;;;;;;;4.43;84.29;95752.47;4978115;28;20238;-75
2021/04/19 07:06:33;;;;;;;45.07;30.50;;;;;;;4.45;84.07;95755.75;4977900;28;20307;-75
2021/04/19 07:09:03;;;;;;;42.90;28.07;;;;;;;4.42;83.64;95749.09;4978251;28;20578;-74
2021/04/19 07:11:34;;;;;;;40.90;26.70;;;;;;;4.40;83.48;95748.34;4978434;28;20180;-75
2021/04/19 07:14:00;;;;;;;40.83;27.03;;;;;;;4.39;83.48;95751.84;4995484;28;20179;-76
2021/04/19 07:16:26;;;;;;;41.93;27.37;;;;;;;4.42;83.17;95741.38;4978167;28;20264;-75
2021/04/19 07:18:52;;;;;;;43.13;27.47;;;;;;;4.42;83.59;95737.97;4977921;28;20179;-75
2021/04/19 07:21:17;;;;;;;44.30;25.93;;;;;;;4.44;83.26;95751.53;4961883;28;20242;-75
2021/04/19 07:23:43;;;;;;;42.97;27.17;;;;;;;4.40;83.46;95747.53;4961937;28;20207;-74
2021/04/19 07:26:08;;;;;;;38.53;27.37;;;;;;;4.42;83.56;95746.50;4995087;28;20254;-75
2021/04/19 07:28:37;;;;;;;40.87;27.30;;;;;;;4.41;83.70;95751.72;4977871;28;20602;-76
2021/04/19 07:31:07;;;;;;;40.20;26.63;;;;;;;4.45;83.47;95750.63;4978280;28;20251;-75
2021/04/19 07:33:34;;;;;;;45.10;27.67;;;;;;;4.46;83.22;95752.25;4977789;28;20200;-75
2021/04/19 07:36:24;;;;;;;43.83;27.83;;;;;;;4.48;83.82;95750.41;4977403;28;20223;-75
2021/04/19 07:38:51;;;;;;;43.93;27.10;;;;;;;4.50;83.49;95754.50;4984190;28;20231;-78
2021/04/19 07:41:17;;;;;;;41.10;27.17;;;;;;;4.49;83.28;95749.47;4978036;28;20214;-75
2021/04/19 07:43:44;;;;;;;47.47;29.87;;;;;;;4.50;83.83;95744.22;4961357;28;20628;-75
2021/04/19 07:46:16;;;;;;;42.40;28.43;;;;;;;4.54;83.24;95748.22;4977187;28;20208;-75
2021/04/19 07:48:45;;;;;;;51.13;30.87;;;;;;;4.52;83.29;95746.69;4977690;28;20230;-75
2021/04/19 07:51:29;;;;;;;49.43;31.03;;;;;;;4.58;83.34;95750.56;4995018;28;20599;-75
2021/04/19 07:54:14;;;;;;;47.93;31.60;;;;;;;4.58;83.66;95751.41;4994980;28;20211;-75
2021/04/19 07:56:45;;;;;;;48.63;32.00;;;;;;;4.60;83.40;95754.72;4977411;28;20663;-75
2021/04/19 07:59:21;;;;;;;50.30;29.87;;;;;;;4.58;83.52;95751.41;4977495;28;20707;-76
2021/04/19 08:02:12;;;;;;;44.90;29.77;;;;;;;4.56;83.73;95745.53;4992598;28;20710;-76
2021/04/19 08:04:55;;;;;;;45.60;30.47;;;;;;;4.56;84.17;95753.25;4977237;28;20236;-75
2021/04/19 08:07:22;;;;;;;48.40;31.67;;;;;;;4.51;84.33;95755.34;4977280;28;20230;-75
2021/04/19 08:09:53;;;;;;;44.87;30.57;;;;;;;4.46;84.90;95757.41;4993361;28;20267;-75
2021/04/19 08:12:18;;;;;;;45.23;29.40;;;;;;;4.42;85.08;95753.41;4994352;28;20187;-76
2021/04/19 08:14:53;;;;;;;42.53;27.17;;;;;;;4.36;85.33;95759.78;4960461;28;20215;-75
2021/04/19 08:17:18;;;;;;;32.33;24.10;;;;;;;4.36;86.09;95758.97;4961928;28;20180;-78
2021/04/19 08:19:45;;;;;;;33.57;24.50;;;;;;;4.34;85.77;95761.63;4978318;28;20202;-78
2021/04/19 08:22:15;;;;;;;36.00;25.10;;;;;;;4.39;85.53;95761.31;4978387;28;20235;-78
2021/04/19 08:24:40;;;;;;;35.40;26.30;;;;;;;4.39;85.48;95763.88;4976826;28;20204;-74
2021/04/19 08:27:06;;;;;;;36.77;25.77;;;;;;;4.39;85.76;95762.13;4976928;28;20194;-74
2021/04/19 08:29:50;;;;;;;36.20;27.90;;;;;;;4.41;85.66;95759.44;4993696;28;20659;-74
2021/04/19 08:32:20;;;;;;;41.40;28.43;;;;;;;4.40;85.67;95761.19;4994391;28;20196;-74
2021/04/19 08:34:49;;;;;;;45.43;29.03;;;;;;;4.41;85.78;95760.28;4974669;28;20205;-74
2021/04/19 08:37:17;;;;;;;41.37;28.23;;;;;;;4.42;86.28;95761.94;4977290;28;20888;-73
2021/04/19 08:39:43;;;;;;;38.53;26.43;;;;;;;4.49;86.34;95762.31;4976085;28;20227;-73
2021/04/19 08:42:09;;;;;;;37.67;26.93;;;;;;;4.58;85.96;95760.88;4974434;28;20203;-74
2021/04/19 08:44:35;;;;;;;41.90;28.33;;;;;;;4.58;86.00;95761.69;4990888;28;20215;-73
2021/04/19 08:47:03;;;;;;;39.47;29.07;;;;;;;4.65;85.86;95768.06;4976004;28;20274;-74
2021/04/19 08:49:29;;;;;;;38.27;28.50;;;;;;;4.72;85.45;95765.88;4989838;28;20231;-74
2021/04/19 08:51:55;;;;;;;42.30;29.97;;;;;;;4.74;85.65;95764.03;4975470;28;20193;-74
2021/04/19 08:54:21;;;;;;;45.00;30.80;;;;;;;4.76;85.84;95769.88;4966162;28;20690;-75
2021/04/19 08:56:46;;;;;;;38.93;27.73;;;;;;;4.88;85.57;95773.38;4984182;28;20211;-75
2021/04/19 08:59:12;;;;;;;37.27;26.87;;;;;;;4.90;85.46;95769.75;4975008;28;20188;-74
2021/04/19 09:01:37;;;;;;;31.63;25.53;;;;;;;4.94;85.45;95772.91;4974095;28;20671;-74
2021/04/19 09:04:04;;;;;;;44.00;32.47;;;;;;;4.91;85.29;95768.81;4957869;28;20189;-74
2021/04/19 09:06:48;;;;;;;40.67;30.33;;;;;;;4.82;85.32;95767.72;4984831;28;20709;-74
2021/04/19 09:09:31;;;;;;;39.80;26.97;;;;;;;4.85;84.95;95774.38;4975238;28;20567;-75
2021/04/19 09:12:09;;;;;;;34.50;26.13;;;;;;;4.88;85.35;95774.19;4992853;28;20806;-74
2021/04/19 09:14:36;;;;;;;38.53;27.63;;;;;;;4.95;85.55;95777.97;4985707;28;20204;-75
2021/04/19 09:17:02;;;;;;;41.40;29.43;;;;;;;4.96;85.51;95773.66;4969402;28;20695;-74
2021/04/19 09:19:29;;;;;;;39.03;28.07;;;;;;;4.96;85.39;95777.06;4969381;28;20177;-75
2021/04/19 09:22:08;;;;;;;39.07;27.80;;;;;;;4.83;85.01;95778.81;4951320;28;20290;-74
2021/04/19 09:25:15;;;;;;;44.63;29.87;;;;;;;4.87;85.45;95777.69;4988509;28;20417;-74
2021/04/19 09:27:41;;;;;;;42.20;29.77;;;;;;;4.88;85.54;95778.53;4973508;28;20621;-74
2021/04/19 09:30:22;;;;;;;36.63;27.93;;;;;;;4.92;85.07;95780.75;4984890;28;20193;-74
2021/04/19 09:32:48;;;;;;;35.03;26.20;;;;;;;4.98;85.31;95784.66;4986559;28;20199;-75
2021/04/19 09:35:40;;;;;;;36.90;25.07;;;;;;;4.93;84.79;95782.38;4974684;28;20210;-75
2021/04/19 09:38:07;;;;;;;35.87;26.53;;;;;;;4.98;84.96;95780.34;4979110;28;20223;-73
2021/04/19 09:40:51;;;;;;;38.23;27.03;;;;;;;5.00;85.28;95783.63;4975031;28;20200;-74
2021/04/19 09:43:41;;;;;;;39.03;27.07;;;;;;;5.08;85.23;95785.66;4968772;28;20639;-74
2021/04/19 09:46:08;;;;;;;39.70;27.53;;;;;;;5.08;84.58;95781.31;4990438;28;20204;-73
2021/04/19 09:48:40;;;;;;;38.83;27.27;;;;;;;5.19;84.69;95788.28;4992573;28;20274;-72
2021/04/19 09:51:15;;;;;;;35.17;25.80;;;;;;;5.27;84.58;95785.97;5002049;28;20262;-72
2021/04/19 09:53:45;;;;;;;33.83;25.47;;;;;;;5.20;83.89;95784.78;4994441;28;20180;-72
2021/04/19 09:56:10;;;;;;;37.40;26.30;;;;;;;5.24;84.01;95782.81;4974767;28;20251;-72
2021/04/19 09:58:37;;;;;;;33.83;25.33;;;;;;;5.26;84.32;95779.19;4995045;28;20180;-72
2021/04/19 10:01:03;;;;;;;36.67;26.60;;;;;;;5.27;84.04;95785.16;4978655;28;20200;-72
2021/04/19 10:03:28;;;;;;;38.23;26.80;;;;;;;5.17;83.87;95784.19;4982699;28;20234;-74
2021/04/19 10:05:54;;;;;;;41.30;27.60;;;;;;;5.09;84.26;95792.44;4983805;28;20216;-73
2021/04/19 10:08:21;;;;;;;39.63;27.47;;;;;;;5.10;84.63;95789.75;4977535;28;20251;-72
2021/04/19 10:10:51;;;;;;;43.53;29.90;;;;;;;5.09;84.87;95789.88;4987636;28;20214;-72
2021/04/19 10:13:26;;;;;;;41.33;29.70;;;;;;;5.07;84.76;95789.97;4980103;28;20179;-71
2021/04/19 10:16:13;;;;;;;44.40;30.87;;;;;;;5.14;84.89;95781.84;4974619;28;20191;-72
2021/04/19 10:18:43;;;;;;;43.57;31.10;;;;;;;5.11;84.81;95785.44;4973141;28;20172;-73
2021/04/19 10:21:15;;;;;;;43.67;30.27;;;;;;;5.20;84.89;95783.94;4967972;28;20197;-73
2021/04/19 10:23:41;;;;;;;46.03;30.17;;;;;;;5.15;84.88;95786.88;4973101;28;20176;-73
2021/04/19 10:26:07;;;;;;;43.97;30.03;;;;;;;5.20;85.04;95782.19;4966957;28;20200;-72
2021/04/19 10:28:36;;;;;;;46.47;31.97;;;;;;;5.15;85.42;95789.44;4971049;28;20247;-72
2021/04/19 10:31:19;;;;;;;42.33;30.10;;;;;;;5.09;84.85;95785.53;4967857;28;20715;-73
2021/04/19 10:33:46;;;;;;;46.77;31.57;;;;;;;5.04;84.85;95789.38;4993475;28;20187;-73
2021/04/19 10:36:17;;;;;;;47.43;30.37;;;;;;;5.04;84.97;95786.81;4986556;28;20209;-72
2021/04/19 10:38:47;;;;;;;46.17;31.33;;;;;;;5.01;85.59;95784.44;4975528;28;20180;-73
2021/04/19 10:41:13;;;;;;;48.27;32.03;;;;;;;5.00;85.44;95787.94;4966742;28;20610;-73
2021/04/19 10:43:39;;;;;;;48.70;31.50;;;;;;;5.06;85.41;95787.53;4973068;28;20259;-73
2021/04/19 10:46:27;;;;;;;44.37;30.07;;;;;;;5.20;85.34;95781.38;4974878;28;20208;-73
2021/04/19 10:48:56;;;;;;;41.80;29.33;;;;;;;5.21;85.25;95781.28;4972136;28;20180;-73
2021/04/19 10:51:31;;;;;;;41.90;28.30;;;;;;;5.24;85.10;95778.50;4973351;28;20641;-73
2021/04/19 10:53:59;;;;;;;38.27;26.43;;;;;;;5.34;85.15;95776.06;4982903;28;20237;-73
2021/04/19 10:56:25;;;;;;;39.73;27.40;;;;;;;5.48;84.94;95770.75;4972905;28;20654;-73
2021/04/19 10:58:59;;;;;;;38.93;28.60;;;;;;;5.59;84.56;95770.81;4988575;28;20211;-73
2021/04/19 11:01:27;;;;;;;41.77;27.23;;;;;;;5.61;84.24;95768.94;4959538;28;20218;-74
2021/04/19 11:03:53;;;;;;;40.10;28.17;;;;;;;5.85;84.14;95770.66;4996615;28;20215;-73
2021/04/19 11:06:19;;;;;;;38.40;27.57;;;;;;;5.89;83.76;95772.06;4971790;28;20215;-74
2021/04/19 11:08:57;;;;;;;40.60;28.10;;;;;;;6.09;83.18;95765.44;4976547;28;20188;-74
2021/04/19 11:11:27;;;;;;;38.93;26.63;;;;;;;6.25;82.47;95763.34;4986329;28;20180;-75
2021/04/19 11:13:53;;;;;;;38.20;25.70;;;;;;;6.35;81.84;95769.44;4982229;28;20270;-75
2021/04/19 11:16:22;;;;;;;30.63;23.93;;;;;;;6.42;81.15;95762.91;4991629;28;20203;-74
2021/04/19 11:18:49;;;;;;;30.97;23.47;;;;;;;6.37;81.14;95761.63;4955987;28;20184;-74
2021/04/19 11:21:32;;;;;;;30.00;21.63;;;;;;;6.45;81.38;95757.53;4973385;28;20605;-74
2021/04/19 11:24:06;;;;;;;32.13;23.27;;;;;;;6.47;81.36;95759.97;4974937;28;20180;-74
2021/04/19 11:26:33;;;;;;;29.77;22.23;;;;;;;6.62;81.12;95761.38;4989802;28;20747;-75
2021/04/19 11:28:58;;;;;;;29.60;22.13;;;;;;;6.33;81.12;95760.19;4971018;28;20184;-75
2021/04/19 11:31:23;;;;;;;33.20;22.20;;;;;;;6.19;81.62;95756.09;4968894;28;20511;-74
2021/04/19 11:34:10;;;;;;;29.70;20.73;;;;;;;6.25;82.30;95760.78;4984315;28;20235;-74